sensor_id;sensor_type;location;lat;lon;timestamp;P1;durP1;ratioP1;P2;durP2;ratioP2
23155;SDS011;11746;50.876;4.246;2023-08-12T00:01:11;8.70;;;3.63;;
23155;SDS011;11746;50.876;4.246;2023-08-12T00:03:36;12.20;;;3.55;;
23155;SDS011;11746;50.876;4.246;2023-08-12T00:06:02;6.53;;;2.90;;
23155;SDS011;11746;50.876;4.246;2023-08-12T00:08:30;8.70;;;3.67;;
23155;SDS011;11746;50.876;4.246;2023-08-12T00:10:58;6.40;;;3.97;;
23155;SDS011;11746;50.876;4.246;2023-08-12T00:13:23;6.32;;;3.05;;
23155;SDS011;11746;50.876;4.246;2023-08-12T00:15:51;6.25;;;3.05;;
23155;SDS011;11746;50.876;4.246;2023-08-12T00:18:17;6.25;;;3.15;;
23155;SDS011;11746;50.876;4.246;2023-08-12T00:20:43;8.52;;;3.47;;
23155;SDS011;11746;50.876;4.246;2023-08-12T00:23:08;6.57;;;3.22;;
23155;SDS011;11746;50.876;4.246;2023-08-12T00:25:36;8.65;;;3.20;;
23155;SDS011;11746;50.876;4.246;2023-08-12T00:28:02;6.40;;;3.20;;
23155;SDS011;11746;50.876;4.246;2023-08-12T00:30:28;7.85;;;3.55;;
23155;SDS011;11746;50.876;4.246;2023-08-12T00:32:56;6.80;;;2.97;;
23155;SDS011;11746;50.876;4.246;2023-08-12T00:35:23;6.68;;;3.20;;
23155;SDS011;11746;50.876;4.246;2023-08-12T00:37:49;6.07;;;3.00;;
23155;SDS011;11746;50.876;4.246;2023-08-12T00:40:15;7.93;;;3.13;;
23155;SDS011;11746;50.876;4.246;2023-08-12T00:42:42;6.82;;;3.33;;
23155;SDS011;11746;50.876;4.246;2023-08-12T00:45:14;6.18;;;2.75;;
23155;SDS011;11746;50.876;4.246;2023-08-12T00:47:39;8.38;;;3.05;;
23155;SDS011;11746;50.876;4.246;2023-08-12T00:50:07;6.85;;;3.03;;
23155;SDS011;11746;50.876;4.246;2023-08-12T00:52:40;5.10;;;3.75;;
23155;SDS011;11746;50.876;4.246;2023-08-12T00:55:06;5.85;;;2.97;;
23155;SDS011;11746;50.876;4.246;2023-08-12T00:57:32;5.10;;;2.97;;
23155;SDS011;11746;50.876;4.246;2023-08-12T00:59:58;10.18;;;3.40;;
23155;SDS011;11746;50.876;4.246;2023-08-12T01:02:24;10.05;;;3.70;;
23155;SDS011;11746;50.876;4.246;2023-08-12T01:04:50;5.22;;;3.53;;
23155;SDS011;11746;50.876;4.246;2023-08-12T01:07:16;6.00;;;3.53;;
23155;SDS011;11746;50.876;4.246;2023-08-12T01:09:44;10.65;;;4.82;;
23155;SDS011;11746;50.876;4.246;2023-08-12T01:12:12;7.50;;;3.78;;
23155;SDS011;11746;50.876;4.246;2023-08-12T01:17:41;8.85;;;4.40;;
23155;SDS011;11746;50.876;4.246;2023-08-12T01:20:12;6.88;;;4.00;;
23155;SDS011;11746;50.876;4.246;2023-08-12T01:22:42;7.47;;;3.55;;
23155;SDS011;11746;50.876;4.246;2023-08-12T01:25:11;9.02;;;3.65;;
23155;SDS011;11746;50.876;4.246;2023-08-12T01:27:37;6.70;;;3.47;;
23155;SDS011;11746;50.876;4.246;2023-08-12T01:30:03;7.20;;;4.00;;
23155;SDS011;11746;50.876;4.246;2023-08-12T01:37:37;7.22;;;3.72;;
23155;SDS011;11746;50.876;4.246;2023-08-12T01:40:04;9.30;;;3.38;;
23155;SDS011;11746;50.876;4.246;2023-08-12T01:42:34;7.05;;;3.55;;
23155;SDS011;11746;50.876;4.246;2023-08-12T01:45:03;5.82;;;3.45;;
23155;SDS011;11746;50.876;4.246;2023-08-12T01:47:29;7.20;;;3.50;;
23155;SDS011;11746;50.876;4.246;2023-08-12T01:49:58;8.60;;;3.70;;
23155;SDS011;11746;50.876;4.246;2023-08-12T01:52:26;10.02;;;4.00;;
23155;SDS011;11746;50.876;4.246;2023-08-12T01:54:51;7.05;;;3.50;;
23155;SDS011;11746;50.876;4.246;2023-08-12T01:57:17;9.50;;;4.03;;
23155;SDS011;11746;50.876;4.246;2023-08-12T01:59:43;6.55;;;3.80;;
23155;SDS011;11746;50.876;4.246;2023-08-12T02:02:09;7.30;;;3.72;;
23155;SDS011;11746;50.876;4.246;2023-08-12T02:04:34;7.60;;;4.25;;
23155;SDS011;11746;50.876;4.246;2023-08-12T02:07:02;6.93;;;4.05;;
23155;SDS011;11746;50.876;4.246;2023-08-12T02:09:31;9.25;;;4.30;;
23155;SDS011;11746;50.876;4.246;2023-08-12T02:12:01;8.07;;;3.97;;
23155;SDS011;11746;50.876;4.246;2023-08-12T02:14:27;6.13;;;4.10;;
23155;SDS011;11746;50.876;4.246;2023-08-12T02:16:53;6.75;;;3.97;;
23155;SDS011;11746;50.876;4.246;2023-08-12T02:19:18;6.97;;;3.90;;
23155;SDS011;11746;50.876;4.246;2023-08-12T02:21:44;10.98;;;4.78;;
23155;SDS011;11746;50.876;4.246;2023-08-12T02:24:10;10.80;;;4.93;;
23155;SDS011;11746;50.876;4.246;2023-08-12T02:26:38;8.82;;;4.70;;
23155;SDS011;11746;50.876;4.246;2023-08-12T02:29:03;9.25;;;4.80;;
23155;SDS011;11746;50.876;4.246;2023-08-12T02:31:29;12.02;;;4.82;;
23155;SDS011;11746;50.876;4.246;2023-08-12T02:33:55;7.80;;;4.57;;
23155;SDS011;11746;50.876;4.246;2023-08-12T02:36:20;9.55;;;4.18;;
23155;SDS011;11746;50.876;4.246;2023-08-12T02:38:46;7.10;;;4.32;;
23155;SDS011;11746;50.876;4.246;2023-08-12T02:41:11;8.63;;;4.28;;
23155;SDS011;11746;50.876;4.246;2023-08-12T02:43:37;9.10;;;4.40;;
23155;SDS011;11746;50.876;4.246;2023-08-12T02:46:08;9.73;;;4.03;;
23155;SDS011;11746;50.876;4.246;2023-08-12T02:48:38;7.03;;;4.65;;
23155;SDS011;11746;50.876;4.246;2023-08-12T02:51:06;7.28;;;4.38;;
23155;SDS011;11746;50.876;4.246;2023-08-12T02:53:32;7.30;;;3.83;;
23155;SDS011;11746;50.876;4.246;2023-08-12T02:56:00;8.60;;;4.03;;
23155;SDS011;11746;50.876;4.246;2023-08-12T02:58:27;10.52;;;4.47;;
23155;SDS011;11746;50.876;4.246;2023-08-12T03:00:55;7.90;;;3.85;;
23155;SDS011;11746;50.876;4.246;2023-08-12T03:03:21;7.25;;;4.15;;
23155;SDS011;11746;50.876;4.246;2023-08-12T03:05:47;9.75;;;4.32;;
23155;SDS011;11746;50.876;4.246;2023-08-12T03:08:15;8.90;;;4.22;;
23155;SDS011;11746;50.876;4.246;2023-08-12T03:10:41;9.07;;;4.68;;
23155;SDS011;11746;50.876;4.246;2023-08-12T03:13:07;8.82;;;5.18;;
23155;SDS011;11746;50.876;4.246;2023-08-12T03:15:38;9.40;;;4.80;;
23155;SDS011;11746;50.876;4.246;2023-08-12T03:18:06;8.40;;;4.90;;
23155;SDS011;11746;50.876;4.246;2023-08-12T03:20:32;5.75;;;4.35;;
23155;SDS011;11746;50.876;4.246;2023-08-12T03:23:04;7.97;;;4.60;;
23155;SDS011;11746;50.876;4.246;2023-08-12T03:25:29;8.93;;;4.50;;
23155;SDS011;11746;50.876;4.246;2023-08-12T03:27:55;9.23;;;4.68;;
23155;SDS011;11746;50.876;4.246;2023-08-12T03:30:23;7.43;;;4.82;;
23155;SDS011;11746;50.876;4.246;2023-08-12T03:32:49;9.00;;;4.93;;
23155;SDS011;11746;50.876;4.246;2023-08-12T03:35:20;7.47;;;5.32;;
23155;SDS011;11746;50.876;4.246;2023-08-12T03:37:45;8.30;;;5.30;;
23155;SDS011;11746;50.876;4.246;2023-08-12T03:40:14;7.07;;;5.18;;
23155;SDS011;11746;50.876;4.246;2023-08-12T03:42:40;7.18;;;4.80;;
23155;SDS011;11746;50.876;4.246;2023-08-12T03:45:05;8.18;;;5.00;;
23155;SDS011;11746;50.876;4.246;2023-08-12T03:47:34;7.60;;;5.20;;
23155;SDS011;11746;50.876;4.246;2023-08-12T03:49:59;7.20;;;4.80;;
23155;SDS011;11746;50.876;4.246;2023-08-12T03:52:27;5.63;;;4.28;;
23155;SDS011;11746;50.876;4.246;2023-08-12T03:54:53;6.40;;;4.68;;
23155;SDS011;11746;50.876;4.246;2023-08-12T03:57:21;5.53;;;3.75;;
23155;SDS011;11746;50.876;4.246;2023-08-12T03:59:46;4.75;;;3.85;;
23155;SDS011;11746;50.876;4.246;2023-08-12T04:02:14;5.50;;;3.25;;
23155;SDS011;11746;50.876;4.246;2023-08-12T04:04:40;4.10;;;3.45;;
23155;SDS011;11746;50.876;4.246;2023-08-12T04:07:07;5.10;;;3.38;;
23155;SDS011;11746;50.876;4.246;2023-08-12T04:09:35;4.47;;;3.30;;
23155;SDS011;11746;50.876;4.246;2023-08-12T04:12:01;3.85;;;3.25;;
23155;SDS011;11746;50.876;4.246;2023-08-12T04:14:27;3.42;;;3.10;;
23155;SDS011;11746;50.876;4.246;2023-08-12T04:16:57;4.82;;;3.45;;
23155;SDS011;11746;50.876;4.246;2023-08-12T04:19:23;3.80;;;3.03;;
23155;SDS011;11746;50.876;4.246;2023-08-12T04:21:55;5.10;;;3.50;;
23155;SDS011;11746;50.876;4.246;2023-08-12T04:24:21;2.50;;;2.30;;
23155;SDS011;11746;50.876;4.246;2023-08-12T04:26:46;3.45;;;2.55;;
23155;SDS011;11746;50.876;4.246;2023-08-12T04:29:12;2.50;;;2.28;;
23155;SDS011;11746;50.876;4.246;2023-08-12T04:31:40;3.22;;;2.20;;
23155;SDS011;11746;50.876;4.246;2023-08-12T04:34:06;2.63;;;1.88;;
23155;SDS011;11746;50.876;4.246;2023-08-12T04:36:31;2.60;;;2.00;;
23155;SDS011;11746;50.876;4.246;2023-08-12T04:38:59;2.92;;;2.15;;
23155;SDS011;11746;50.876;4.246;2023-08-12T04:41:25;2.60;;;2.30;;
23155;SDS011;11746;50.876;4.246;2023-08-12T04:43:53;2.95;;;2.28;;
23155;SDS011;11746;50.876;4.246;2023-08-12T04:46:18;3.30;;;2.40;;
23155;SDS011;11746;50.876;4.246;2023-08-12T04:48:44;2.47;;;2.20;;
23155;SDS011;11746;50.876;4.246;2023-08-12T04:51:10;2.50;;;2.30;;
23155;SDS011;11746;50.876;4.246;2023-08-12T04:53:36;2.85;;;2.42;;
23155;SDS011;11746;50.876;4.246;2023-08-12T04:56:01;2.90;;;2.30;;
23155;SDS011;11746;50.876;4.246;2023-08-12T04:58:29;3.92;;;2.33;;
23155;SDS011;11746;50.876;4.246;2023-08-12T05:00:57;3.65;;;2.70;;
23155;SDS011;11746;50.876;4.246;2023-08-12T05:03:23;3.30;;;2.65;;
23155;SDS011;11746;50.876;4.246;2023-08-12T05:05:52;2.78;;;2.50;;
23155;SDS011;11746;50.876;4.246;2023-08-12T05:08:18;3.50;;;3.00;;
23155;SDS011;11746;50.876;4.246;2023-08-12T05:10:43;4.05;;;3.10;;
23155;SDS011;11746;50.876;4.246;2023-08-12T05:13:11;3.83;;;2.92;;
23155;SDS011;11746;50.876;4.246;2023-08-12T05:15:39;3.53;;;3.03;;
23155;SDS011;11746;50.876;4.246;2023-08-12T05:18:13;4.25;;;3.20;;
23155;SDS011;11746;50.876;4.246;2023-08-12T05:20:41;5.18;;;3.35;;
23155;SDS011;11746;50.876;4.246;2023-08-12T05:23:09;3.20;;;2.90;;
23155;SDS011;11746;50.876;4.246;2023-08-12T05:25:39;4.50;;;3.30;;
23155;SDS011;11746;50.876;4.246;2023-08-12T05:28:05;3.20;;;2.90;;
23155;SDS011;11746;50.876;4.246;2023-08-12T05:30:34;3.85;;;2.90;;
23155;SDS011;11746;50.876;4.246;2023-08-12T05:33:02;4.22;;;2.88;;
23155;SDS011;11746;50.876;4.246;2023-08-12T05:35:28;4.95;;;3.30;;
23155;SDS011;11746;50.876;4.246;2023-08-12T05:37:57;4.88;;;3.33;;
23155;SDS011;11746;50.876;4.246;2023-08-12T05:40:23;6.05;;;3.60;;
23155;SDS011;11746;50.876;4.246;2023-08-12T05:42:49;4.05;;;3.15;;
23155;SDS011;11746;50.876;4.246;2023-08-12T05:45:16;4.25;;;3.40;;
23155;SDS011;11746;50.876;4.246;2023-08-12T05:47:47;4.80;;;3.42;;
23155;SDS011;11746;50.876;4.246;2023-08-12T05:50:12;4.60;;;3.13;;
23155;SDS011;11746;50.876;4.246;2023-08-12T05:52:40;4.20;;;3.47;;
23155;SDS011;11746;50.876;4.246;2023-08-12T05:55:06;4.72;;;3.40;;
23155;SDS011;11746;50.876;4.246;2023-08-12T05:57:37;4.47;;;3.63;;
23155;SDS011;11746;50.876;4.246;2023-08-12T06:00:05;4.40;;;3.38;;
23155;SDS011;11746;50.876;4.246;2023-08-12T06:02:31;4.53;;;3.45;;
23155;SDS011;11746;50.876;4.246;2023-08-12T06:04:59;4.25;;;3.30;;
23155;SDS011;11746;50.876;4.246;2023-08-12T06:07:24;5.78;;;3.35;;
23155;SDS011;11746;50.876;4.246;2023-08-12T06:09:50;5.05;;;3.42;;
23155;SDS011;11746;50.876;4.246;2023-08-12T06:12:18;5.82;;;3.80;;
23155;SDS011;11746;50.876;4.246;2023-08-12T06:14:46;4.35;;;3.72;;
23155;SDS011;11746;50.876;4.246;2023-08-12T06:17:12;4.22;;;3.50;;
23155;SDS011;11746;50.876;4.246;2023-08-12T06:19:40;5.15;;;3.53;;
23155;SDS011;11746;50.876;4.246;2023-08-12T06:22:08;5.43;;;3.70;;
23155;SDS011;11746;50.876;4.246;2023-08-12T06:24:36;4.13;;;3.30;;
23155;SDS011;11746;50.876;4.246;2023-08-12T06:27:02;4.57;;;3.50;;
23155;SDS011;11746;50.876;4.246;2023-08-12T06:29:27;4.53;;;3.53;;
23155;SDS011;11746;50.876;4.246;2023-08-12T06:31:55;3.53;;;3.05;;
23155;SDS011;11746;50.876;4.246;2023-08-12T06:34:24;4.97;;;3.03;;
23155;SDS011;11746;50.876;4.246;2023-08-12T06:36:52;5.68;;;2.97;;
23155;SDS011;11746;50.876;4.246;2023-08-12T06:39:18;3.05;;;2.63;;
23155;SDS011;11746;50.876;4.246;2023-08-12T06:41:43;3.47;;;2.20;;
23155;SDS011;11746;50.876;4.246;2023-08-12T06:44:09;2.30;;;2.10;;
23155;SDS011;11746;50.876;4.246;2023-08-12T06:46:34;3.13;;;2.10;;
23155;SDS011;11746;50.876;4.246;2023-08-12T06:49:00;4.13;;;3.03;;
23155;SDS011;11746;50.876;4.246;2023-08-12T06:51:33;7.90;;;7.18;;
23155;SDS011;11746;50.876;4.246;2023-08-12T06:53:58;10.48;;;9.48;;
23155;SDS011;11746;50.876;4.246;2023-08-12T06:56:24;11.60;;;10.40;;
23155;SDS011;11746;50.876;4.246;2023-08-12T06:58:52;11.95;;;10.75;;
23155;SDS011;11746;50.876;4.246;2023-08-12T07:01:17;11.95;;;10.35;;
23155;SDS011;11746;50.876;4.246;2023-08-12T07:03:43;11.98;;;9.70;;
23155;SDS011;11746;50.876;4.246;2023-08-12T07:06:08;9.38;;;8.48;;
23155;SDS011;11746;50.876;4.246;2023-08-12T07:08:34;8.57;;;7.68;;
23155;SDS011;11746;50.876;4.246;2023-08-12T07:11:00;9.70;;;8.70;;
23155;SDS011;11746;50.876;4.246;2023-08-12T07:13:28;10.38;;;8.68;;
23155;SDS011;11746;50.876;4.246;2023-08-12T07:15:53;9.90;;;8.50;;
23155;SDS011;11746;50.876;4.246;2023-08-12T07:18:19;9.20;;;8.18;;
23155;SDS011;11746;50.876;4.246;2023-08-12T07:20:47;9.00;;;8.10;;
23155;SDS011;11746;50.876;4.246;2023-08-12T07:23:12;10.20;;;8.48;;
23155;SDS011;11746;50.876;4.246;2023-08-12T07:25:41;11.73;;;10.52;;
23155;SDS011;11746;50.876;4.246;2023-08-12T07:28:10;11.98;;;10.77;;
23155;SDS011;11746;50.876;4.246;2023-08-12T07:30:36;13.50;;;10.40;;
23155;SDS011;11746;50.876;4.246;2023-08-12T07:33:01;11.68;;;10.48;;
23155;SDS011;11746;50.876;4.246;2023-08-12T07:35:27;12.02;;;10.82;;
23155;SDS011;11746;50.876;4.246;2023-08-12T07:37:55;11.32;;;10.20;;
23155;SDS011;11746;50.876;4.246;2023-08-12T07:40:23;9.43;;;8.52;;
23155;SDS011;11746;50.876;4.246;2023-08-12T07:42:51;9.63;;;8.38;;
23155;SDS011;11746;50.876;4.246;2023-08-12T07:45:17;8.80;;;7.90;;
23155;SDS011;11746;50.876;4.246;2023-08-12T07:47:45;8.15;;;7.35;;
23155;SDS011;11746;50.876;4.246;2023-08-12T07:50:13;8.13;;;7.38;;
23155;SDS011;11746;50.876;4.246;2023-08-12T07:52:39;8.20;;;7.40;;
23155;SDS011;11746;50.876;4.246;2023-08-12T07:55:05;7.10;;;6.40;;
23155;SDS011;11746;50.876;4.246;2023-08-12T07:57:31;9.13;;;6.57;;
23155;SDS011;11746;50.876;4.246;2023-08-12T07:59:59;6.45;;;5.70;;
23155;SDS011;11746;50.876;4.246;2023-08-12T08:02:30;6.20;;;5.60;;
23155;SDS011;11746;50.876;4.246;2023-08-12T08:04:55;8.25;;;5.60;;
23155;SDS011;11746;50.876;4.246;2023-08-12T08:07:26;6.72;;;6.03;;
23155;SDS011;11746;50.876;4.246;2023-08-12T08:09:53;7.45;;;6.25;;
23155;SDS011;11746;50.876;4.246;2023-08-12T08:12:19;7.15;;;6.35;;
23155;SDS011;11746;50.876;4.246;2023-08-12T08:14:45;9.35;;;6.40;;
23155;SDS011;11746;50.876;4.246;2023-08-12T08:17:12;7.82;;;5.72;;
23155;SDS011;11746;50.876;4.246;2023-08-12T08:19:40;7.30;;;6.20;;
23155;SDS011;11746;50.876;4.246;2023-08-12T08:22:06;7.10;;;5.93;;
23155;SDS011;11746;50.876;4.246;2023-08-12T08:24:32;7.15;;;6.40;;
23155;SDS011;11746;50.876;4.246;2023-08-12T08:27:00;6.63;;;5.85;;
23155;SDS011;11746;50.876;4.246;2023-08-12T08:29:25;7.70;;;6.00;;
23155;SDS011;11746;50.876;4.246;2023-08-12T08:31:51;8.20;;;5.85;;
23155;SDS011;11746;50.876;4.246;2023-08-12T08:34:17;7.82;;;5.97;;
23155;SDS011;11746;50.876;4.246;2023-08-12T08:36:42;6.93;;;5.07;;
23155;SDS011;11746;50.876;4.246;2023-08-12T08:39:10;7.95;;;5.43;;
23155;SDS011;11746;50.876;4.246;2023-08-12T08:41:39;6.65;;;4.95;;
23155;SDS011;11746;50.876;4.246;2023-08-12T08:44:08;7.15;;;4.50;;
23155;SDS011;11746;50.876;4.246;2023-08-12T08:46:37;6.05;;;4.45;;
23155;SDS011;11746;50.876;4.246;2023-08-12T08:49:02;5.43;;;4.68;;
23155;SDS011;11746;50.876;4.246;2023-08-12T08:51:30;6.72;;;4.45;;
23155;SDS011;11746;50.876;4.246;2023-08-12T08:53:56;6.30;;;4.05;;
23155;SDS011;11746;50.876;4.246;2023-08-12T08:56:23;5.13;;;3.28;;
23155;SDS011;11746;50.876;4.246;2023-08-12T08:58:49;7.10;;;3.20;;
23155;SDS011;11746;50.876;4.246;2023-08-12T09:01:15;5.65;;;3.20;;
23155;SDS011;11746;50.876;4.246;2023-08-12T09:03:47;4.20;;;2.70;;
23155;SDS011;11746;50.876;4.246;2023-08-12T09:06:14;3.50;;;2.45;;
23155;SDS011;11746;50.876;4.246;2023-08-12T09:08:44;6.47;;;2.40;;
23155;SDS011;11746;50.876;4.246;2023-08-12T09:11:12;4.88;;;2.03;;
23155;SDS011;11746;50.876;4.246;2023-08-12T09:13:39;3.42;;;1.90;;
23155;SDS011;11746;50.876;4.246;2023-08-12T09:16:07;4.78;;;2.28;;
23155;SDS011;11746;50.876;4.246;2023-08-12T09:18:34;2.50;;;1.35;;
23155;SDS011;11746;50.876;4.246;2023-08-12T09:21:04;4.45;;;1.52;;
23155;SDS011;11746;50.876;4.246;2023-08-12T09:23:39;3.40;;;1.30;;
23155;SDS011;11746;50.876;4.246;2023-08-12T09:26:12;2.88;;;1.20;;
23155;SDS011;11746;50.876;4.246;2023-08-12T09:28:44;3.97;;;1.35;;
23155;SDS011;11746;50.876;4.246;2023-08-12T09:31:24;2.55;;;1.40;;
23155;SDS011;11746;50.876;4.246;2023-08-12T09:33:50;3.00;;;1.35;;
23155;SDS011;11746;50.876;4.246;2023-08-12T09:36:16;3.38;;;1.42;;
23155;SDS011;11746;50.876;4.246;2023-08-12T09:38:43;5.07;;;1.63;;
23155;SDS011;11746;50.876;4.246;2023-08-12T09:41:09;3.53;;;1.20;;
23155;SDS011;11746;50.876;4.246;2023-08-12T09:43:41;4.70;;;1.88;;
23155;SDS011;11746;50.876;4.246;2023-08-12T09:46:11;3.83;;;1.30;;
23155;SDS011;11746;50.876;4.246;2023-08-12T09:48:40;2.38;;;0.98;;
23155;SDS011;11746;50.876;4.246;2023-08-12T09:51:08;5.38;;;1.42;;
23155;SDS011;11746;50.876;4.246;2023-08-12T09:53:36;6.00;;;1.70;;
23155;SDS011;11746;50.876;4.246;2023-08-12T09:56:07;5.90;;;1.30;;
23155;SDS011;11746;50.876;4.246;2023-08-12T09:58:36;5.85;;;1.05;;
23155;SDS011;11746;50.876;4.246;2023-08-12T10:01:03;2.75;;;1.70;;
23155;SDS011;11746;50.876;4.246;2023-08-12T10:03:32;4.22;;;1.08;;
23155;SDS011;11746;50.876;4.246;2023-08-12T10:05:59;6.80;;;1.42;;
23155;SDS011;11746;50.876;4.246;2023-08-12T10:08:27;5.13;;;1.38;;
23155;SDS011;11746;50.876;4.246;2023-08-12T10:10:53;4.10;;;1.20;;
23155;SDS011;11746;50.876;4.246;2023-08-12T10:13:22;2.78;;;1.25;;
23155;SDS011;11746;50.876;4.246;2023-08-12T10:15:49;6.75;;;1.40;;
23155;SDS011;11746;50.876;4.246;2023-08-12T10:18:15;5.78;;;1.48;;
23155;SDS011;11746;50.876;4.246;2023-08-12T10:20:43;4.82;;;1.17;;
23155;SDS011;11746;50.876;4.246;2023-08-12T10:23:12;4.13;;;1.10;;
23155;SDS011;11746;50.876;4.246;2023-08-12T10:25:43;7.38;;;1.58;;
23155;SDS011;11746;50.876;4.246;2023-08-12T10:28:09;4.47;;;1.20;;
23155;SDS011;11746;50.876;4.246;2023-08-12T10:30:39;6.43;;;1.48;;
23155;SDS011;11746;50.876;4.246;2023-08-12T10:33:06;5.47;;;1.70;;
23155;SDS011;11746;50.876;4.246;2023-08-12T10:35:44;6.07;;;1.55;;
23155;SDS011;11746;50.876;4.246;2023-08-12T10:38:11;6.85;;;1.40;;
23155;SDS011;11746;50.876;4.246;2023-08-12T10:40:38;4.07;;;1.17;;
23155;SDS011;11746;50.876;4.246;2023-08-12T10:43:06;7.18;;;1.25;;
23155;SDS011;11746;50.876;4.246;2023-08-12T10:48:27;7.45;;;1.67;;
23155;SDS011;11746;50.876;4.246;2023-08-12T10:50:54;4.30;;;1.10;;
23155;SDS011;11746;50.876;4.246;2023-08-12T10:55:50;4.68;;;1.00;;
23155;SDS011;11746;50.876;4.246;2023-08-12T10:58:27;4.97;;;1.27;;
23155;SDS011;11746;50.876;4.246;2023-08-12T11:00:59;3.88;;;1.13;;
23155;SDS011;11746;50.876;4.246;2023-08-12T11:03:31;5.28;;;1.60;;
23155;SDS011;11746;50.876;4.246;2023-08-12T11:05:59;4.13;;;1.35;;
23155;SDS011;11746;50.876;4.246;2023-08-12T11:08:28;3.85;;;1.02;;
23155;SDS011;11746;50.876;4.246;2023-08-12T11:10:54;5.47;;;1.20;;
23155;SDS011;11746;50.876;4.246;2023-08-12T11:13:26;6.15;;;1.35;;
23155;SDS011;11746;50.876;4.246;2023-08-12T11:15:52;9.90;;;1.60;;
23155;SDS011;11746;50.876;4.246;2023-08-12T11:18:30;3.80;;;0.93;;
23155;SDS011;11746;50.876;4.246;2023-08-12T11:20:58;4.25;;;0.90;;
23155;SDS011;11746;50.876;4.246;2023-08-12T11:23:25;5.28;;;1.10;;
23155;SDS011;11746;50.876;4.246;2023-08-12T11:25:50;5.93;;;1.10;;
23155;SDS011;11746;50.876;4.246;2023-08-12T11:28:17;4.88;;;1.42;;
23155;SDS011;11746;50.876;4.246;2023-08-12T11:30:46;5.85;;;1.10;;
23155;SDS011;11746;50.876;4.246;2023-08-12T11:33:12;2.85;;;0.80;;
23155;SDS011;11746;50.876;4.246;2023-08-12T11:35:37;6.38;;;1.23;;
23155;SDS011;11746;50.876;4.246;2023-08-12T11:38:04;4.53;;;1.20;;
23155;SDS011;11746;50.876;4.246;2023-08-12T11:40:31;4.50;;;0.85;;
23155;SDS011;11746;50.876;4.246;2023-08-12T11:42:59;4.35;;;1.13;;
23155;SDS011;11746;50.876;4.246;2023-08-12T11:45:26;4.50;;;1.23;;
23155;SDS011;11746;50.876;4.246;2023-08-12T11:47:53;5.07;;;1.13;;
23155;SDS011;11746;50.876;4.246;2023-08-12T11:50:20;5.22;;;0.90;;
23155;SDS011;11746;50.876;4.246;2023-08-12T11:52:47;3.95;;;0.93;;
23155;SDS011;11746;50.876;4.246;2023-08-12T11:55:13;4.07;;;0.90;;
23155;SDS011;11746;50.876;4.246;2023-08-12T11:57:42;3.38;;;1.05;;
23155;SDS011;11746;50.876;4.246;2023-08-12T12:00:12;5.97;;;1.08;;
23155;SDS011;11746;50.876;4.246;2023-08-12T12:02:47;7.07;;;1.40;;
23155;SDS011;11746;50.876;4.246;2023-08-12T12:05:18;4.70;;;1.20;;
23155;SDS011;11746;50.876;4.246;2023-08-12T12:07:49;3.85;;;1.10;;
23155;SDS011;11746;50.876;4.246;2023-08-12T12:10:20;4.15;;;0.90;;
23155;SDS011;11746;50.876;4.246;2023-08-12T12:12:56;3.83;;;1.10;;
23155;SDS011;11746;50.876;4.246;2023-08-12T12:15:26;4.07;;;0.95;;
23155;SDS011;11746;50.876;4.246;2023-08-12T12:17:51;2.40;;;0.90;;
23155;SDS011;11746;50.876;4.246;2023-08-12T12:20:20;6.55;;;1.17;;
23155;SDS011;11746;50.876;4.246;2023-08-12T12:22:46;3.72;;;0.90;;
23155;SDS011;11746;50.876;4.246;2023-08-12T12:25:13;5.72;;;1.42;;
23155;SDS011;11746;50.876;4.246;2023-08-12T12:27:41;4.28;;;0.90;;
23155;SDS011;11746;50.876;4.246;2023-08-12T12:30:08;4.15;;;1.00;;
23155;SDS011;11746;50.876;4.246;2023-08-12T12:32:37;4.28;;;1.00;;
23155;SDS011;11746;50.876;4.246;2023-08-12T12:35:04;4.55;;;0.73;;
23155;SDS011;11746;50.876;4.246;2023-08-12T12:37:32;4.05;;;1.20;;
23155;SDS011;11746;50.876;4.246;2023-08-12T12:39:58;4.40;;;1.00;;
23155;SDS011;11746;50.876;4.246;2023-08-12T12:42:23;2.95;;;1.02;;
23155;SDS011;11746;50.876;4.246;2023-08-12T12:44:49;4.07;;;1.00;;
23155;SDS011;11746;50.876;4.246;2023-08-12T12:47:15;4.68;;;1.02;;
23155;SDS011;11746;50.876;4.246;2023-08-12T12:49:41;6.32;;;1.08;;
23155;SDS011;11746;50.876;4.246;2023-08-12T12:52:09;3.53;;;0.65;;
23155;SDS011;11746;50.876;4.246;2023-08-12T12:54:37;4.07;;;0.80;;
23155;SDS011;11746;50.876;4.246;2023-08-12T12:57:03;3.03;;;0.93;;
23155;SDS011;11746;50.876;4.246;2023-08-12T12:59:29;4.57;;;1.27;;
23155;SDS011;11746;50.876;4.246;2023-08-12T13:01:57;5.07;;;1.10;;
23155;SDS011;11746;50.876;4.246;2023-08-12T13:04:23;3.40;;;0.98;;
23155;SDS011;11746;50.876;4.246;2023-08-12T13:06:50;3.47;;;1.30;;
23155;SDS011;11746;50.876;4.246;2023-08-12T13:09:16;3.28;;;1.38;;
23155;SDS011;11746;50.876;4.246;2023-08-12T13:11:42;3.00;;;1.20;;
23155;SDS011;11746;50.876;4.246;2023-08-12T13:14:07;6.47;;;1.45;;
23155;SDS011;11746;50.876;4.246;2023-08-12T13:16:33;3.78;;;1.23;;
23155;SDS011;11746;50.876;4.246;2023-08-12T13:18:58;3.97;;;1.33;;
23155;SDS011;11746;50.876;4.246;2023-08-12T13:21:25;4.03;;;1.40;;
23155;SDS011;11746;50.876;4.246;2023-08-12T13:23:51;4.55;;;1.20;;
23155;SDS011;11746;50.876;4.246;2023-08-12T13:26:20;3.60;;;1.15;;
23155;SDS011;11746;50.876;4.246;2023-08-12T13:28:48;6.15;;;1.70;;
23155;SDS011;11746;50.876;4.246;2023-08-12T13:31:16;6.28;;;1.33;;
23155;SDS011;11746;50.876;4.246;2023-08-12T13:33:42;3.10;;;1.33;;
23155;SDS011;11746;50.876;4.246;2023-08-12T13:36:07;6.28;;;1.23;;
23155;SDS011;11746;50.876;4.246;2023-08-12T13:38:33;5.63;;;1.48;;
23155;SDS011;11746;50.876;4.246;2023-08-12T13:40:58;5.38;;;1.17;;
23155;SDS011;11746;50.876;4.246;2023-08-12T13:43:24;4.57;;;1.33;;
23155;SDS011;11746;50.876;4.246;2023-08-12T13:45:50;3.65;;;1.25;;
23155;SDS011;11746;50.876;4.246;2023-08-12T13:48:18;5.78;;;1.23;;
23155;SDS011;11746;50.876;4.246;2023-08-12T13:50:43;2.90;;;1.10;;
23155;SDS011;11746;50.876;4.246;2023-08-12T13:53:09;5.95;;;1.20;;
23155;SDS011;11746;50.876;4.246;2023-08-12T13:55:35;2.90;;;1.02;;
23155;SDS011;11746;50.876;4.246;2023-08-12T13:58:00;6.47;;;1.20;;
23155;SDS011;11746;50.876;4.246;2023-08-12T14:00:28;7.28;;;1.52;;
23155;SDS011;11746;50.876;4.246;2023-08-12T14:02:54;4.32;;;1.00;;
23155;SDS011;11746;50.876;4.246;2023-08-12T14:05:19;2.72;;;1.00;;
23155;SDS011;11746;50.876;4.246;2023-08-12T14:07:45;4.90;;;1.33;;
23155;SDS011;11746;50.876;4.246;2023-08-12T14:10:13;5.07;;;1.40;;
23155;SDS011;11746;50.876;4.246;2023-08-12T14:12:39;6.05;;;1.70;;
23155;SDS011;11746;50.876;4.246;2023-08-12T14:15:05;4.80;;;1.60;;
23155;SDS011;11746;50.876;4.246;2023-08-12T14:17:33;6.47;;;1.20;;
23155;SDS011;11746;50.876;4.246;2023-08-12T14:19:59;4.85;;;1.20;;
23155;SDS011;11746;50.876;4.246;2023-08-12T14:22:24;4.53;;;1.50;;
23155;SDS011;11746;50.876;4.246;2023-08-12T14:24:50;6.93;;;1.38;;
23155;SDS011;11746;50.876;4.246;2023-08-12T14:27:18;3.70;;;1.25;;
23155;SDS011;11746;50.876;4.246;2023-08-12T14:29:44;3.85;;;1.40;;
23155;SDS011;11746;50.876;4.246;2023-08-12T14:32:10;5.88;;;1.15;;
23155;SDS011;11746;50.876;4.246;2023-08-12T14:34:38;4.07;;;1.23;;
23155;SDS011;11746;50.876;4.246;2023-08-12T14:37:09;4.40;;;1.30;;
23155;SDS011;11746;50.876;4.246;2023-08-12T14:39:35;4.22;;;1.15;;
23155;SDS011;11746;50.876;4.246;2023-08-12T14:42:03;3.40;;;1.30;;
23155;SDS011;11746;50.876;4.246;2023-08-12T14:44:32;6.18;;;1.35;;
23155;SDS011;11746;50.876;4.246;2023-08-12T14:47:00;4.28;;;1.17;;
23155;SDS011;11746;50.876;4.246;2023-08-12T14:49:25;4.75;;;1.58;;
23155;SDS011;11746;50.876;4.246;2023-08-12T14:51:56;3.80;;;1.30;;
23155;SDS011;11746;50.876;4.246;2023-08-12T14:54:21;5.80;;;1.63;;
23155;SDS011;11746;50.876;4.246;2023-08-12T14:56:47;2.35;;;1.10;;
23155;SDS011;11746;50.876;4.246;2023-08-12T14:59:15;5.10;;;1.00;;